Hlavní strana
METAR-TAF:

METAR-TAF

Letiště :

Schwäbisch Hall, Německo

zeměpisná šířka: 49-07-06N, zeměpisná délka: 9-47-02E, výška: 398 m

Aktuální stav počasí

Zpráva byla vytvořena před 39 minutami, v 10:20 UTC
Severozápadní vítr 8 kt, proměnlivý mezi západojihozápadním a severním
Teplota 25°C
Vlhkost vzduchu 47%
Tlak 1021 hPa
Viditelnost 10 km a více
Žádná oblačnost pod 1500 m, nevyskytují se cumulonimby.

METAR: EDTY 201020Z 31008KT 250V350 CAVOK 25/13 Q1021

Čas: 12:59 (10:59 UTC)

Předpověď počasí

Zpráva byla vytvořena před 2 hodinami a 59 minutami, v 08:00 UTC
Předpověď platná od 20 v 09 UTC do 20 v 18 UTC
Západoseverozápadní vítr 7 kt
Viditelnost 10 km a více
Žádná oblačnost pod 1500 m, nevyskytují se cumulonimby.

TAF: EDTY 200800Z 2009/2018 30007KT CAVOK

Stav a předpovědi počasí z více než 4 000 letišť (zprávy METAR a TAF).

Červené a žluté tečky na mapě představují dostupné meteorologické stanice.

Když kurzor umístíte na tečku, zobrazí se název stanice.

Pak kliknutím zobrazíte stav a předpověď počasí.

Chcete-li změnit mapu, kliknutím na zelené tlačítko se znaménkem +mapu přiblížíte, kliknutím na zelené tlačítko se znaménkem – mapu oddálíte a kliknutím na zelené šipky přejdete na sousední mapy.


METAR-TAF: